sensor_id;sensor_type;location;lat;lon;timestamp;P1;durP1;ratioP1;P2;durP2;ratioP2
9940;SDS011;5009;50.656;7.188;2023-04-09T04:02:19;17.90;;;14.87;;
9940;SDS011;5009;50.656;7.188;2023-04-09T04:04:45;16.37;;;14.67;;
9940;SDS011;5009;50.656;7.188;2023-04-09T04:07:10;16.77;;;15.07;;
9940;SDS011;5009;50.656;7.188;2023-04-09T04:09:36;15.70;;;14.07;;
9940;SDS011;5009;50.656;7.188;2023-04-09T04:12:01;16.47;;;14.87;;
9940;SDS011;5009;50.656;7.188;2023-04-09T04:14:27;16.07;;;14.50;;
9940;SDS011;5009;50.656;7.188;2023-04-09T04:16:52;15.47;;;13.87;;
9940;SDS011;5009;50.656;7.188;2023-04-09T04:19:18;15.93;;;14.23;;
9940;SDS011;5009;50.656;7.188;2023-04-09T04:21:43;16.67;;;14.63;;
9940;SDS011;5009;50.656;7.188;2023-04-09T04:24:09;15.70;;;14.10;;
9940;SDS011;5009;50.656;7.188;2023-04-09T04:26:34;14.50;;;13.00;;
9940;SDS011;5009;50.656;7.188;2023-04-09T04:29:00;16.37;;;14.67;;
9940;SDS011;5009;50.656;7.188;2023-04-09T04:31:25;15.43;;;13.93;;
9940;SDS011;5009;50.656;7.188;2023-04-09T04:33:51;15.50;;;13.90;;
9940;SDS011;5009;50.656;7.188;2023-04-09T04:36:16;15.13;;;13.63;;
9940;SDS011;5009;50.656;7.188;2023-04-09T04:38:42;14.93;;;13.37;;
9940;SDS011;5009;50.656;7.188;2023-04-09T04:41:09;13.87;;;12.47;;
9940;SDS011;5009;50.656;7.188;2023-04-09T04:43:35;13.07;;;11.53;;
9940;SDS011;5009;50.656;7.188;2023-04-09T04:46:01;13.33;;;11.93;;
9940;SDS011;5009;50.656;7.188;2023-04-09T04:48:27;15.23;;;12.67;;
9940;SDS011;5009;50.656;7.188;2023-04-09T04:50:53;15.07;;;12.13;;
9940;SDS011;5009;50.656;7.188;2023-04-09T04:53:23;14.00;;;12.50;;
9940;SDS011;5009;50.656;7.188;2023-04-09T04:55:49;14.50;;;13.10;;
9940;SDS011;5009;50.656;7.188;2023-04-09T04:58:14;16.23;;;13.73;;
9940;SDS011;5009;50.656;7.188;2023-04-09T05:00:40;15.50;;;14.00;;
9940;SDS011;5009;50.656;7.188;2023-04-09T05:03:06;14.07;;;12.57;;
9940;SDS011;5009;50.656;7.188;2023-04-09T05:05:31;14.80;;;13.17;;
9940;SDS011;5009;50.656;7.188;2023-04-09T05:07:57;13.77;;;12.13;;
9940;SDS011;5009;50.656;7.188;2023-04-09T05:10:22;13.30;;;11.90;;
9940;SDS011;5009;50.656;7.188;2023-04-09T05:12:48;13.80;;;12.47;;
9940;SDS011;5009;50.656;7.188;2023-04-09T05:15:13;14.67;;;13.07;;
9940;SDS011;5009;50.656;7.188;2023-04-09T05:17:42;14.47;;;12.93;;
9940;SDS011;5009;50.656;7.188;2023-04-09T05:20:08;16.10;;;12.60;;
9940;SDS011;5009;50.656;7.188;2023-04-09T05:22:34;13.83;;;12.43;;
9940;SDS011;5009;50.656;7.188;2023-04-09T05:25:00;14.27;;;12.70;;
9940;SDS011;5009;50.656;7.188;2023-04-09T05:27:26;13.73;;;12.33;;
9940;SDS011;5009;50.656;7.188;2023-04-09T05:29:52;13.23;;;11.83;;
9940;SDS011;5009;50.656;7.188;2023-04-09T05:32:17;15.47;;;13.47;;
9940;SDS011;5009;50.656;7.188;2023-04-09T05:34:43;16.73;;;12.87;;
9940;SDS011;5009;50.656;7.188;2023-04-09T05:37:08;13.67;;;11.90;;
9940;SDS011;5009;50.656;7.188;2023-04-09T05:39:34;13.20;;;11.83;;
9940;SDS011;5009;50.656;7.188;2023-04-09T05:42:00;13.47;;;12.13;;
9940;SDS011;5009;50.656;7.188;2023-04-09T05:44:26;15.40;;;12.40;;
9940;SDS011;5009;50.656;7.188;2023-04-09T05:46:51;14.00;;;12.50;;
9940;SDS011;5009;50.656;7.188;2023-04-09T05:49:17;14.37;;;12.47;;
9940;SDS011;5009;50.656;7.188;2023-04-09T05:51:42;17.20;;;13.10;;
9940;SDS011;5009;50.656;7.188;2023-04-09T05:54:08;14.37;;;12.87;;
9940;SDS011;5009;50.656;7.188;2023-04-09T05:56:33;15.10;;;13.50;;
9940;SDS011;5009;50.656;7.188;2023-04-09T05:58:59;14.53;;;12.97;;
9940;SDS011;5009;50.656;7.188;2023-04-09T06:01:25;13.77;;;12.40;;
9940;SDS011;5009;50.656;7.188;2023-04-09T06:03:51;15.67;;;12.10;;
9940;SDS011;5009;50.656;7.188;2023-04-09T06:06:16;14.00;;;12.20;;
9940;SDS011;5009;50.656;7.188;2023-04-09T06:08:42;15.60;;;11.97;;
9940;SDS011;5009;50.656;7.188;2023-04-09T06:11:08;13.57;;;12.13;;
9940;SDS011;5009;50.656;7.188;2023-04-09T06:13:37;12.27;;;11.00;;
9940;SDS011;5009;50.656;7.188;2023-04-09T06:16:04;13.97;;;11.47;;
9940;SDS011;5009;50.656;7.188;2023-04-09T06:18:30;13.13;;;10.67;;
9940;SDS011;5009;50.656;7.188;2023-04-09T06:21:00;12.70;;;11.23;;
9940;SDS011;5009;50.656;7.188;2023-04-09T06:23:30;12.73;;;11.13;;
9940;SDS011;5009;50.656;7.188;2023-04-09T06:25:57;14.13;;;11.00;;
9940;SDS011;5009;50.656;7.188;2023-04-09T06:28:23;13.40;;;11.07;;
9940;SDS011;5009;50.656;7.188;2023-04-09T06:30:48;13.47;;;10.47;;
9940;SDS011;5009;50.656;7.188;2023-04-09T06:33:14;10.50;;;9.40;;
9940;SDS011;5009;50.656;7.188;2023-04-09T06:35:40;10.87;;;9.40;;
9940;SDS011;5009;50.656;7.188;2023-04-09T06:38:06;10.30;;;9.27;;
9940;SDS011;5009;50.656;7.188;2023-04-09T06:40:34;9.87;;;8.87;;
9940;SDS011;5009;50.656;7.188;2023-04-09T06:43:03;10.90;;;8.57;;
9940;SDS011;5009;50.656;7.188;2023-04-09T06:45:29;10.40;;;8.77;;
9940;SDS011;5009;50.656;7.188;2023-04-09T06:47:55;9.73;;;8.73;;
9940;SDS011;5009;50.656;7.188;2023-04-09T06:50:21;9.77;;;8.77;;
9940;SDS011;5009;50.656;7.188;2023-04-09T06:52:46;9.17;;;8.27;;
9940;SDS011;5009;50.656;7.188;2023-04-09T06:55:12;9.77;;;8.63;;
9940;SDS011;5009;50.656;7.188;2023-04-09T06:57:38;8.43;;;7.63;;
9940;SDS011;5009;50.656;7.188;2023-04-09T07:00:04;7.95;;;7.15;;
9940;SDS011;5009;50.656;7.188;2023-04-09T07:02:30;8.77;;;7.55;;
9940;SDS011;5009;50.656;7.188;2023-04-09T07:04:56;8.10;;;7.40;;
9940;SDS011;5009;50.656;7.188;2023-04-09T07:07:21;10.32;;;9.23;;
9940;SDS011;5009;50.656;7.188;2023-04-09T07:09:47;9.65;;;8.75;;
9940;SDS011;5009;50.656;7.188;2023-04-09T07:12:13;9.07;;;8.15;;
9940;SDS011;5009;50.656;7.188;2023-04-09T07:14:38;8.77;;;7.63;;
9940;SDS011;5009;50.656;7.188;2023-04-09T07:17:04;8.65;;;7.35;;
9940;SDS011;5009;50.656;7.188;2023-04-09T07:19:29;8.65;;;7.75;;
9940;SDS011;5009;50.656;7.188;2023-04-09T07:21:55;7.80;;;7.10;;
9940;SDS011;5009;50.656;7.188;2023-04-09T07:24:21;8.65;;;7.85;;
9940;SDS011;5009;50.656;7.188;2023-04-09T07:26:46;8.45;;;7.75;;
9940;SDS011;5009;50.656;7.188;2023-04-09T07:29:12;8.60;;;7.80;;
9940;SDS011;5009;50.656;7.188;2023-04-09T07:31:38;8.18;;;7.47;;
9940;SDS011;5009;50.656;7.188;2023-04-09T07:34:04;8.57;;;7.80;;
9940;SDS011;5009;50.656;7.188;2023-04-09T07:36:29;8.23;;;7.50;;
9940;SDS011;5009;50.656;7.188;2023-04-09T07:38:55;8.50;;;7.70;;
9940;SDS011;5009;50.656;7.188;2023-04-09T07:41:21;8.65;;;7.95;;
9940;SDS011;5009;50.656;7.188;2023-04-09T07:43:46;8.65;;;7.85;;
9940;SDS011;5009;50.656;7.188;2023-04-09T07:46:17;8.82;;;8.02;;
9940;SDS011;5009;50.656;7.188;2023-04-09T07:48:44;9.30;;;8.50;;
9940;SDS011;5009;50.656;7.188;2023-04-09T07:51:09;8.80;;;7.90;;
9940;SDS011;5009;50.656;7.188;2023-04-09T07:53:35;10.00;;;9.10;;
9940;SDS011;5009;50.656;7.188;2023-04-09T07:56:00;9.50;;;8.70;;
9940;SDS011;5009;50.656;7.188;2023-04-09T07:58:26;9.30;;;8.50;;
9940;SDS011;5009;50.656;7.188;2023-04-09T08:00:52;8.30;;;7.60;;
9940;SDS011;5009;50.656;7.188;2023-04-09T08:03:17;9.15;;;8.35;;
9940;SDS011;5009;50.656;7.188;2023-04-09T08:05:43;9.52;;;8.63;;
9940;SDS011;5009;50.656;7.188;2023-04-09T08:08:09;8.68;;;7.78;;
9940;SDS011;5009;50.656;7.188;2023-04-09T08:10:34;8.15;;;7.45;;
9940;SDS011;5009;50.656;7.188;2023-04-09T08:13:00;10.18;;;9.10;;
9940;SDS011;5009;50.656;7.188;2023-04-09T08:15:26;9.73;;;8.73;;
9940;SDS011;5009;50.656;7.188;2023-04-09T08:17:51;9.05;;;8.25;;
9940;SDS011;5009;50.656;7.188;2023-04-09T08:20:17;9.23;;;8.43;;
9940;SDS011;5009;50.656;7.188;2023-04-09T08:22:42;9.10;;;8.15;;
9940;SDS011;5009;50.656;7.188;2023-04-09T08:25:09;9.13;;;8.25;;
9940;SDS011;5009;50.656;7.188;2023-04-09T08:27:34;9.13;;;8.35;;
9940;SDS011;5009;50.656;7.188;2023-04-09T08:30:01;16.95;;;7.80;;
9940;SDS011;5009;50.656;7.188;2023-04-09T08:32:27;8.70;;;7.90;;
9940;SDS011;5009;50.656;7.188;2023-04-09T08:34:53;8.13;;;7.43;;
9940;SDS011;5009;50.656;7.188;2023-04-09T08:37:18;8.68;;;7.88;;
9940;SDS011;5009;50.656;7.188;2023-04-09T08:39:44;9.75;;;8.77;;
9940;SDS011;5009;50.656;7.188;2023-04-09T08:42:10;8.13;;;7.43;;
9940;SDS011;5009;50.656;7.188;2023-04-09T08:44:36;8.40;;;7.60;;
9940;SDS011;5009;50.656;7.188;2023-04-09T08:47:02;8.45;;;7.75;;
9940;SDS011;5009;50.656;7.188;2023-04-09T08:49:36;8.73;;;7.93;;
9940;SDS011;5009;50.656;7.188;2023-04-09T08:52:05;8.90;;;8.10;;
9940;SDS011;5009;50.656;7.188;2023-04-09T08:54:32;8.65;;;7.85;;
9940;SDS011;5009;50.656;7.188;2023-04-09T08:56:57;9.88;;;8.98;;
9940;SDS011;5009;50.656;7.188;2023-04-09T08:59:23;9.43;;;8.55;;
9940;SDS011;5009;50.656;7.188;2023-04-09T09:01:49;9.13;;;8.18;;
9940;SDS011;5009;50.656;7.188;2023-04-09T09:04:47;9.77;;;8.93;;
9940;SDS011;5009;50.656;7.188;2023-04-09T09:07:13;9.65;;;8.75;;
9940;SDS011;5009;50.656;7.188;2023-04-09T09:09:53;9.30;;;8.45;;
9940;SDS011;5009;50.656;7.188;2023-04-09T09:15:25;10.32;;;9.43;;
9940;SDS011;5009;50.656;7.188;2023-04-09T09:17:54;9.88;;;8.95;;
9940;SDS011;5009;50.656;7.188;2023-04-09T09:20:22;9.77;;;8.88;;
9940;SDS011;5009;50.656;7.188;2023-04-09T09:22:52;9.65;;;8.85;;
9940;SDS011;5009;50.656;7.188;2023-04-09T09:25:18;10.48;;;9.57;;
9940;SDS011;5009;50.656;7.188;2023-04-09T09:27:48;9.95;;;9.10;;
9940;SDS011;5009;50.656;7.188;2023-04-09T09:30:24;9.77;;;8.85;;
9940;SDS011;5009;50.656;7.188;2023-04-09T09:33:03;10.05;;;9.15;;
9940;SDS011;5009;50.656;7.188;2023-04-09T09:35:48;10.57;;;9.65;;
9940;SDS011;5009;50.656;7.188;2023-04-09T09:38:15;9.95;;;9.05;;
9940;SDS011;5009;50.656;7.188;2023-04-09T09:40:41;11.32;;;10.23;;
9940;SDS011;5009;50.656;7.188;2023-04-09T09:43:07;9.68;;;8.77;;
9940;SDS011;5009;50.656;7.188;2023-04-09T09:45:33;10.02;;;9.13;;
9940;SDS011;5009;50.656;7.188;2023-04-09T09:48:00;8.95;;;7.53;;
9940;SDS011;5009;50.656;7.188;2023-04-09T09:50:27;10.45;;;8.90;;
9940;SDS011;5009;50.656;7.188;2023-04-09T09:53:00;9.95;;;9.02;;
9940;SDS011;5009;50.656;7.188;2023-04-09T09:55:31;9.30;;;8.40;;
9940;SDS011;5009;50.656;7.188;2023-04-09T09:58:00;9.38;;;8.38;;
9940;SDS011;5009;50.656;7.188;2023-04-09T10:00:27;10.60;;;9.50;;
9940;SDS011;5009;50.656;7.188;2023-04-09T10:02:56;10.02;;;9.00;;
9940;SDS011;5009;50.656;7.188;2023-04-09T10:05:29;10.55;;;9.50;;
9940;SDS011;5009;50.656;7.188;2023-04-09T10:07:56;9.40;;;8.50;;
9940;SDS011;5009;50.656;7.188;2023-04-09T10:10:22;9.18;;;8.38;;
9940;SDS011;5009;50.656;7.188;2023-04-09T10:12:49;8.88;;;8.07;;
9940;SDS011;5009;50.656;7.188;2023-04-09T10:15:17;9.52;;;8.68;;
9940;SDS011;5009;50.656;7.188;2023-04-09T10:17:43;8.13;;;7.43;;
9940;SDS011;5009;50.656;7.188;2023-04-09T10:20:11;8.63;;;7.93;;
9940;SDS011;5009;50.656;7.188;2023-04-09T10:22:42;9.10;;;8.30;;
9940;SDS011;5009;50.656;7.188;2023-04-09T10:25:11;9.02;;;8.13;;
9940;SDS011;5009;50.656;7.188;2023-04-09T10:27:37;8.60;;;7.80;;
9940;SDS011;5009;50.656;7.188;2023-04-09T10:30:03;9.05;;;8.30;;
9940;SDS011;5009;50.656;7.188;2023-04-09T10:32:34;9.43;;;8.52;;
9940;SDS011;5009;50.656;7.188;2023-04-09T10:35:00;8.80;;;7.97;;
9940;SDS011;5009;50.656;7.188;2023-04-09T10:37:28;8.53;;;7.73;;
9940;SDS011;5009;50.656;7.188;2023-04-09T10:39:54;9.05;;;6.88;;
9940;SDS011;5009;50.656;7.188;2023-04-09T10:42:31;8.73;;;7.95;;
9940;SDS011;5009;50.656;7.188;2023-04-09T10:45:03;8.27;;;7.57;;
9940;SDS011;5009;50.656;7.188;2023-04-09T10:47:37;7.23;;;6.53;;
9940;SDS011;5009;50.656;7.188;2023-04-09T10:52:44;8.53;;;7.20;;
9940;SDS011;5009;50.656;7.188;2023-04-09T10:57:55;8.57;;;7.77;;
9940;SDS011;5009;50.656;7.188;2023-04-09T11:00:21;8.27;;;7.47;;
9940;SDS011;5009;50.656;7.188;2023-04-09T11:03:05;7.75;;;6.55;;
9940;SDS011;5009;50.656;7.188;2023-04-09T11:05:44;7.10;;;6.50;;
9940;SDS011;5009;50.656;7.188;2023-04-09T11:08:16;8.70;;;7.90;;
9940;SDS011;5009;50.656;7.188;2023-04-09T11:10:43;7.50;;;6.80;;
9940;SDS011;5009;50.656;7.188;2023-04-09T11:13:12;6.67;;;6.07;;
9940;SDS011;5009;50.656;7.188;2023-04-09T11:15:42;7.60;;;6.90;;
9940;SDS011;5009;50.656;7.188;2023-04-09T11:18:08;8.23;;;7.53;;
9940;SDS011;5009;50.656;7.188;2023-04-09T11:20:39;7.47;;;6.80;;
9940;SDS011;5009;50.656;7.188;2023-04-09T11:23:05;6.93;;;6.32;;
9940;SDS011;5009;50.656;7.188;2023-04-09T11:25:31;8.18;;;7.38;;
9940;SDS011;5009;50.656;7.188;2023-04-09T11:27:58;8.73;;;7.93;;
9940;SDS011;5009;50.656;7.188;2023-04-09T11:30:24;9.15;;;8.30;;
9940;SDS011;5009;50.656;7.188;2023-04-09T11:32:50;8.52;;;7.72;;
9940;SDS011;5009;50.656;7.188;2023-04-09T11:35:17;8.75;;;7.95;;
9940;SDS011;5009;50.656;7.188;2023-04-09T11:37:44;8.93;;;8.02;;
9940;SDS011;5009;50.656;7.188;2023-04-09T11:40:20;8.30;;;7.57;;
9940;SDS011;5009;50.656;7.188;2023-04-09T11:42:48;8.43;;;7.63;;
9940;SDS011;5009;50.656;7.188;2023-04-09T11:45:17;8.27;;;7.50;;
9940;SDS011;5009;50.656;7.188;2023-04-09T11:47:44;7.03;;;6.38;;
9940;SDS011;5009;50.656;7.188;2023-04-09T11:50:11;7.82;;;7.13;;
9940;SDS011;5009;50.656;7.188;2023-04-09T11:52:37;8.15;;;7.35;;
9940;SDS011;5009;50.656;7.188;2023-04-09T11:55:05;7.72;;;7.03;;
9940;SDS011;5009;50.656;7.188;2023-04-09T11:57:39;7.47;;;6.80;;
9940;SDS011;5009;50.656;7.188;2023-04-09T12:00:13;7.70;;;7.00;;
9940;SDS011;5009;50.656;7.188;2023-04-09T12:02:41;6.53;;;5.88;;
9940;SDS011;5009;50.656;7.188;2023-04-09T12:05:27;6.68;;;6.05;;
9940;SDS011;5009;50.656;7.188;2023-04-09T12:08:01;6.85;;;6.25;;
9940;SDS011;5009;50.656;7.188;2023-04-09T12:10:29;7.00;;;6.30;;
9940;SDS011;5009;50.656;7.188;2023-04-09T12:13:04;7.18;;;6.57;;
9940;SDS011;5009;50.656;7.188;2023-04-09T12:15:32;7.13;;;6.50;;
9940;SDS011;5009;50.656;7.188;2023-04-09T12:17:58;6.90;;;6.20;;
9940;SDS011;5009;50.656;7.188;2023-04-09T12:20:25;6.13;;;5.55;;
9940;SDS011;5009;50.656;7.188;2023-04-09T12:22:58;6.88;;;6.28;;
9940;SDS011;5009;50.656;7.188;2023-04-09T12:25:27;10.40;;;9.40;;
9940;SDS011;5009;50.656;7.188;2023-04-09T12:27:54;8.00;;;7.30;;
9940;SDS011;5009;50.656;7.188;2023-04-09T12:30:20;7.40;;;6.70;;
9940;SDS011;5009;50.656;7.188;2023-04-09T12:32:45;7.00;;;6.40;;
9940;SDS011;5009;50.656;7.188;2023-04-09T12:35:12;7.10;;;6.50;;
9940;SDS011;5009;50.656;7.188;2023-04-09T12:37:38;7.85;;;7.15;;
9940;SDS011;5009;50.656;7.188;2023-04-09T12:40:04;6.93;;;6.10;;
9940;SDS011;5009;50.656;7.188;2023-04-09T12:42:30;6.97;;;6.38;;
9940;SDS011;5009;50.656;7.188;2023-04-09T12:44:56;6.32;;;5.80;;
9940;SDS011;5009;50.656;7.188;2023-04-09T12:47:21;10.98;;;9.98;;
9940;SDS011;5009;50.656;7.188;2023-04-09T12:49:47;9.27;;;8.48;;
9940;SDS011;5009;50.656;7.188;2023-04-09T12:52:14;8.35;;;7.63;;
9940;SDS011;5009;50.656;7.188;2023-04-09T12:54:40;7.93;;;7.22;;
9940;SDS011;5009;50.656;7.188;2023-04-09T12:57:05;6.03;;;5.43;;
9940;SDS011;5009;50.656;7.188;2023-04-09T12:59:31;10.10;;;9.20;;
9940;SDS011;5009;50.656;7.188;2023-04-09T13:01:57;8.68;;;7.88;;
9940;SDS011;5009;50.656;7.188;2023-04-09T13:04:22;7.55;;;6.95;;
9940;SDS011;5009;50.656;7.188;2023-04-09T13:06:48;7.03;;;6.32;;
9940;SDS011;5009;50.656;7.188;2023-04-09T13:09:14;7.00;;;6.40;;
9940;SDS011;5009;50.656;7.188;2023-04-09T13:11:39;7.68;;;7.07;;
9940;SDS011;5009;50.656;7.188;2023-04-09T13:14:05;6.68;;;6.07;;
9940;SDS011;5009;50.656;7.188;2023-04-09T13:16:30;6.15;;;5.65;;
9940;SDS011;5009;50.656;7.188;2023-04-09T13:18:56;6.45;;;5.95;;
9940;SDS011;5009;50.656;7.188;2023-04-09T13:21:22;6.82;;;6.20;;
9940;SDS011;5009;50.656;7.188;2023-04-09T13:23:48;11.77;;;10.73;;
9940;SDS011;5009;50.656;7.188;2023-04-09T13:26:13;7.07;;;6.47;;
9940;SDS011;5009;50.656;7.188;2023-04-09T13:28:39;20.67;;;18.95;;
9940;SDS011;5009;50.656;7.188;2023-04-09T13:31:05;7.68;;;6.88;;
9940;SDS011;5009;50.656;7.188;2023-04-09T13:33:30;6.15;;;5.65;;
9940;SDS011;5009;50.656;7.188;2023-04-09T13:35:56;6.22;;;5.63;;
9940;SDS011;5009;50.656;7.188;2023-04-09T13:38:22;6.30;;;5.75;;
9940;SDS011;5009;50.656;7.188;2023-04-09T13:40:47;5.68;;;5.20;;
9940;SDS011;5009;50.656;7.188;2023-04-09T13:43:13;6.63;;;5.93;;
9940;SDS011;5009;50.656;7.188;2023-04-09T13:45:38;5.97;;;5.47;;
9940;SDS011;5009;50.656;7.188;2023-04-09T13:48:05;5.50;;;5.10;;
9940;SDS011;5009;50.656;7.188;2023-04-09T13:50:31;5.43;;;5.03;;
9940;SDS011;5009;50.656;7.188;2023-04-09T13:52:56;5.78;;;5.28;;
9940;SDS011;5009;50.656;7.188;2023-04-09T13:55:22;5.50;;;5.00;;
9940;SDS011;5009;50.656;7.188;2023-04-09T13:57:48;4.72;;;4.35;;
9940;SDS011;5009;50.656;7.188;2023-04-09T14:00:13;5.45;;;4.70;;
9940;SDS011;5009;50.656;7.188;2023-04-09T14:02:39;5.82;;;5.38;;
9940;SDS011;5009;50.656;7.188;2023-04-09T14:05:05;6.25;;;5.15;;
9940;SDS011;5009;50.656;7.188;2023-04-09T14:07:31;5.05;;;4.65;;
9940;SDS011;5009;50.656;7.188;2023-04-09T14:09:56;5.55;;;5.10;;
9940;SDS011;5009;50.656;7.188;2023-04-09T14:12:22;5.30;;;4.80;;
9940;SDS011;5009;50.656;7.188;2023-04-09T14:14:48;5.13;;;4.68;;
9940;SDS011;5009;50.656;7.188;2023-04-09T14:17:13;4.75;;;4.35;;
9940;SDS011;5009;50.656;7.188;2023-04-09T14:19:40;5.10;;;4.65;;
9940;SDS011;5009;50.656;7.188;2023-04-09T14:22:05;4.90;;;4.50;;
9940;SDS011;5009;50.656;7.188;2023-04-09T14:24:35;5.70;;;4.45;;
9940;SDS011;5009;50.656;7.188;2023-04-09T14:27:06;5.40;;;5.00;;
9940;SDS011;5009;50.656;7.188;2023-04-09T14:29:32;4.53;;;4.22;;
9940;SDS011;5009;50.656;7.188;2023-04-09T14:31:58;5.15;;;4.75;;
9940;SDS011;5009;50.656;7.188;2023-04-09T14:34:24;6.75;;;5.25;;
9940;SDS011;5009;50.656;7.188;2023-04-09T14:36:51;4.95;;;4.53;;
9940;SDS011;5009;50.656;7.188;2023-04-09T14:39:16;4.68;;;4.28;;
9940;SDS011;5009;50.656;7.188;2023-04-09T14:41:42;5.65;;;5.15;;
9940;SDS011;5009;50.656;7.188;2023-04-09T14:44:08;4.50;;;4.20;;
9940;SDS011;5009;50.656;7.188;2023-04-09T14:46:34;4.88;;;4.47;;
9940;SDS011;5009;50.656;7.188;2023-04-09T14:49:00;4.82;;;4.43;;
9940;SDS011;5009;50.656;7.188;2023-04-09T14:51:27;4.85;;;4.45;;
9940;SDS011;5009;50.656;7.188;2023-04-09T14:53:54;4.72;;;4.15;;
9940;SDS011;5009;50.656;7.188;2023-04-09T14:56:21;4.60;;;4.30;;
9940;SDS011;5009;50.656;7.188;2023-04-09T14:58:47;5.15;;;4.65;;
9940;SDS011;5009;50.656;7.188;2023-04-09T15:01:12;4.50;;;4.10;;
9940;SDS011;5009;50.656;7.188;2023-04-09T15:03:38;5.35;;;4.85;;
9940;SDS011;5009;50.656;7.188;2023-04-09T15:06:05;5.47;;;5.00;;
9940;SDS011;5009;50.656;7.188;2023-04-09T15:08:31;4.88;;;4.47;;
9940;SDS011;5009;50.656;7.188;2023-04-09T15:10:57;5.25;;;4.85;;
9940;SDS011;5009;50.656;7.188;2023-04-09T15:13:22;5.30;;;4.90;;
9940;SDS011;5009;50.656;7.188;2023-04-09T15:15:48;5.18;;;4.78;;
9940;SDS011;5009;50.656;7.188;2023-04-09T15:18:14;5.28;;;4.78;;
9940;SDS011;5009;50.656;7.188;2023-04-09T15:20:40;5.68;;;5.18;;
9940;SDS011;5009;50.656;7.188;2023-04-09T15:23:07;5.60;;;5.10;;
9940;SDS011;5009;50.656;7.188;2023-04-09T15:25:33;4.80;;;4.43;;
9940;SDS011;5009;50.656;7.188;2023-04-09T15:28:00;5.18;;;4.78;;
9940;SDS011;5009;50.656;7.188;2023-04-09T15:30:26;5.43;;;4.93;;
9940;SDS011;5009;50.656;7.188;2023-04-09T15:32:51;5.10;;;4.70;;
9940;SDS011;5009;50.656;7.188;2023-04-09T15:35:17;6.20;;;5.60;;
9940;SDS011;5009;50.656;7.188;2023-04-09T15:37:48;5.93;;;5.33;;
9940;SDS011;5009;50.656;7.188;2023-04-09T15:40:15;6.13;;;5.63;;
9940;SDS011;5009;50.656;7.188;2023-04-09T15:42:41;5.93;;;5.43;;
9940;SDS011;5009;50.656;7.188;2023-04-09T15:45:07;5.47;;;5.07;;
9940;SDS011;5009;50.656;7.188;2023-04-09T15:47:32;6.47;;;5.87;;
9940;SDS011;5009;50.656;7.188;2023-04-09T15:49:58;6.87;;;6.27;;
9940;SDS011;5009;50.656;7.188;2023-04-09T15:52:23;6.10;;;5.60;;
9940;SDS011;5009;50.656;7.188;2023-04-09T15:54:50;6.00;;;5.50;;
9940;SDS011;5009;50.656;7.188;2023-04-09T15:57:16;5.93;;;5.43;;
9940;SDS011;5009;50.656;7.188;2023-04-09T15:59:42;6.07;;;5.57;;
9940;SDS011;5009;50.656;7.188;2023-04-09T16:02:07;5.80;;;5.30;;
9940;SDS011;5009;50.656;7.188;2023-04-09T16:04:33;5.97;;;5.50;;
9940;SDS011;5009;50.656;7.188;2023-04-09T16:06:59;5.20;;;4.70;;
9940;SDS011;5009;50.656;7.188;2023-04-09T16:09:26;5.07;;;4.67;;
9940;SDS011;5009;50.656;7.188;2023-04-09T16:11:51;6.67;;;5.13;;
9940;SDS011;5009;50.656;7.188;2023-04-09T16:14:17;6.03;;;5.43;;
9940;SDS011;5009;50.656;7.188;2023-04-09T16:16:43;5.60;;;4.90;;
9940;SDS011;5009;50.656;7.188;2023-04-09T16:19:12;5.63;;;5.23;;
9940;SDS011;5009;50.656;7.188;2023-04-09T16:21:38;5.83;;;5.43;;
9940;SDS011;5009;50.656;7.188;2023-04-09T16:24:07;5.40;;;5.00;;
9940;SDS011;5009;50.656;7.188;2023-04-09T16:26:35;5.87;;;5.37;;
9940;SDS011;5009;50.656;7.188;2023-04-09T16:29:00;5.30;;;4.80;;
9940;SDS011;5009;50.656;7.188;2023-04-09T16:31:28;14.47;;;12.97;;
9940;SDS011;5009;50.656;7.188;2023-04-09T16:33:53;6.17;;;5.60;;
9940;SDS011;5009;50.656;7.188;2023-04-09T16:36:19;5.93;;;5.43;;
9940;SDS011;5009;50.656;7.188;2023-04-09T16:38:45;5.67;;;5.17;;
9940;SDS011;5009;50.656;7.188;2023-04-09T16:41:11;6.20;;;5.70;;
9940;SDS011;5009;50.656;7.188;2023-04-09T16:43:36;5.50;;;5.00;;
9940;SDS011;5009;50.656;7.188;2023-04-09T16:46:02;6.07;;;5.13;;
9940;SDS011;5009;50.656;7.188;2023-04-09T16:48:30;6.20;;;5.60;;
9940;SDS011;5009;50.656;7.188;2023-04-09T16:50:56;5.57;;;5.07;;
9940;SDS011;5009;50.656;7.188;2023-04-09T16:53:21;5.17;;;4.77;;
9940;SDS011;5009;50.656;7.188;2023-04-09T16:55:47;6.23;;;5.67;;
9940;SDS011;5009;50.656;7.188;2023-04-09T16:58:13;5.77;;;5.30;;
9940;SDS011;5009;50.656;7.188;2023-04-09T17:00:38;5.23;;;4.83;;
9940;SDS011;5009;50.656;7.188;2023-04-09T17:03:04;5.17;;;4.77;;
9940;SDS011;5009;50.656;7.188;2023-04-09T17:05:30;5.47;;;4.97;;
9940;SDS011;5009;50.656;7.188;2023-04-09T17:07:55;4.90;;;4.20;;
9940;SDS011;5009;50.656;7.188;2023-04-09T17:10:21;4.87;;;4.47;;
9940;SDS011;5009;50.656;7.188;2023-04-09T17:12:47;5.63;;;5.13;;
9940;SDS011;5009;50.656;7.188;2023-04-09T17:15:14;5.70;;;5.20;;
9940;SDS011;5009;50.656;7.188;2023-04-09T17:17:40;5.70;;;5.23;;
9940;SDS011;5009;50.656;7.188;2023-04-09T17:20:07;4.83;;;4.43;;
9940;SDS011;5009;50.656;7.188;2023-04-09T17:22:33;4.93;;;4.50;;
9940;SDS011;5009;50.656;7.188;2023-04-09T17:24:59;15.67;;;14.27;;
9940;SDS011;5009;50.656;7.188;2023-04-09T17:27:25;13.73;;;12.47;;
9940;SDS011;5009;50.656;7.188;2023-04-09T17:29:51;6.40;;;5.90;;
9940;SDS011;5009;50.656;7.188;2023-04-09T17:32:17;5.50;;;5.10;;
9940;SDS011;5009;50.656;7.188;2023-04-09T17:34:45;6.00;;;5.50;;
9940;SDS011;5009;50.656;7.188;2023-04-09T17:37:13;5.43;;;4.87;;
9940;SDS011;5009;50.656;7.188;2023-04-09T17:39:38;5.60;;;5.10;;
9940;SDS011;5009;50.656;7.188;2023-04-09T17:42:04;4.90;;;4.50;;
9940;SDS011;5009;50.656;7.188;2023-04-09T17:44:30;5.33;;;4.93;;
9940;SDS011;5009;50.656;7.188;2023-04-09T17:46:59;5.47;;;4.97;;
9940;SDS011;5009;50.656;7.188;2023-04-09T17:49:30;8.03;;;5.47;;
9940;SDS011;5009;50.656;7.188;2023-04-09T17:51:56;6.00;;;5.50;;
9940;SDS011;5009;50.656;7.188;2023-04-09T17:54:22;5.30;;;4.80;;
9940;SDS011;5009;50.656;7.188;2023-04-09T17:56:48;5.37;;;4.87;;
9940;SDS011;5009;50.656;7.188;2023-04-09T17:59:13;7.13;;;6.53;;
9940;SDS011;5009;50.656;7.188;2023-04-09T18:01:39;6.40;;;5.83;;
9940;SDS011;5009;50.656;7.188;2023-04-09T18:04:04;7.10;;;6.50;;
9940;SDS011;5009;50.656;7.188;2023-04-09T18:06:30;7.27;;;6.67;;
9940;SDS011;5009;50.656;7.188;2023-04-09T18:08:56;6.00;;;5.50;;
9940;SDS011;5009;50.656;7.188;2023-04-09T18:11:21;5.40;;;4.90;;
9940;SDS011;5009;50.656;7.188;2023-04-09T18:13:48;5.57;;;4.70;;
9940;SDS011;5009;50.656;7.188;2023-04-09T18:16:17;5.90;;;5.40;;
9940;SDS011;5009;50.656;7.188;2023-04-09T18:18:44;8.07;;;7.47;;
9940;SDS011;5009;50.656;7.188;2023-04-09T18:21:10;7.00;;;6.30;;
9940;SDS011;5009;50.656;7.188;2023-04-09T18:23:36;6.20;;;5.70;;
9940;SDS011;5009;50.656;7.188;2023-04-09T18:26:03;6.07;;;5.47;;
9940;SDS011;5009;50.656;7.188;2023-04-09T18:28:29;7.10;;;6.53;;
9940;SDS011;5009;50.656;7.188;2023-04-09T18:30:54;32.23;;;29.20;;
9940;SDS011;5009;50.656;7.188;2023-04-09T18:33:20;14.43;;;13.00;;
9940;SDS011;5009;50.656;7.188;2023-04-09T18:35:45;36.77;;;33.30;;
9940;SDS011;5009;50.656;7.188;2023-04-09T18:38:11;17.00;;;15.40;;
9940;SDS011;5009;50.656;7.188;2023-04-09T18:40:45;32.93;;;29.73;;
9940;SDS011;5009;50.656;7.188;2023-04-09T18:43:11;35.17;;;31.77;;
9940;SDS011;5009;50.656;7.188;2023-04-09T18:45:37;31.07;;;28.17;;
9940;SDS011;5009;50.656;7.188;2023-04-09T18:48:05;23.17;;;20.97;;
9940;SDS011;5009;50.656;7.188;2023-04-09T18:50:32;12.93;;;11.73;;
9940;SDS011;5009;50.656;7.188;2023-04-09T18:52:58;14.93;;;13.63;;
9940;SDS011;5009;50.656;7.188;2023-04-09T18:55:23;14.73;;;13.53;;
9940;SDS011;5009;50.656;7.188;2023-04-09T18:57:49;11.17;;;10.17;;
9940;SDS011;5009;50.656;7.188;2023-04-09T19:00:15;12.60;;;11.50;;
9940;SDS011;5009;50.656;7.188;2023-04-09T19:02:40;17.40;;;15.80;;
9940;SDS011;5009;50.656;7.188;2023-04-09T19:05:06;12.87;;;11.70;;
9940;SDS011;5009;50.656;7.188;2023-04-09T19:07:32;19.93;;;17.90;;
9940;SDS011;5009;50.656;7.188;2023-04-09T19:09:58;18.60;;;16.80;;
9940;SDS011;5009;50.656;7.188;2023-04-09T19:12:24;35.97;;;32.30;;
9940;SDS011;5009;50.656;7.188;2023-04-09T19:14:51;38.67;;;34.70;;